Time;durP1;ratioP1;P1;durP2;ratioP2;P2;SDS_P1;SDS_P2;PMS_P1;PMS_P2;Temp;Humidity;BMP_temperature;BMP_pressure;BME280_temperature;BME280_humidity;BME280_pressure;Samples;Min_cycle;Max_cycle;Signal;HPM_P1;HPM_P2
2023/07/08 00:00:14;;;;;;;7.97;4.53;;;;;;;;;;5092662;28;20393;-65
2023/07/08 00:02:41;;;;;;;7.23;4.40;;;;;;;;;;5072761;28;20024;-65
2023/07/08 00:05:07;;;;;;;7.88;4.03;;;;;;;;;;5092958;28;20028;-66
2023/07/08 00:07:32;;;;;;;9.38;4.20;;;;;;;;;;5088873;28;20529;-66
2023/07/08 00:09:57;;;;;;;8.50;3.73;;;;;;;;;;5087806;28;20028;-66
2023/07/08 00:12:22;;;;;;;6.37;3.33;;;;;;;;;;5092776;28;20270;-66
2023/07/08 00:14:48;;;;;;;9.03;3.50;;;;;;;;;;5091537;28;20768;-66
2023/07/08 00:17:13;;;;;;;6.97;3.77;;;;;;;;;;5081101;28;20325;-66
2023/07/08 00:19:38;;;;;;;8.70;4.22;;;;;;;;;;5091666;28;20285;-66
2023/07/08 00:22:12;;;;;;;5.57;3.63;;;;;;;;;;5092747;28;20027;-66
2023/07/08 00:24:37;;;;;;;7.63;3.88;;;;;;;;;;5092851;28;20062;-66
2023/07/08 00:27:02;;;;;;;6.87;3.73;;;;;;;;;;5093011;28;20456;-66
2023/07/08 00:29:27;;;;;;;9.75;4.53;;;;;;;;;;5092121;28;20286;-66
2023/07/08 00:31:53;;;;;;;5.93;3.87;;;;;;;;;;5092608;28;20474;-66
2023/07/08 00:34:18;;;;;;;7.47;3.90;;;;;;;;;;5080174;28;20278;-66
2023/07/08 00:36:43;;;;;;;6.57;3.97;;;;;;;;;;5091835;28;20312;-66
2023/07/08 00:39:13;;;;;;;7.13;3.75;;;;;;;;;;5092008;28;20324;-66
2023/07/08 00:41:40;;;;;;;5.78;3.97;;;;;;;;;;5092194;28;20054;-66
2023/07/08 00:44:07;;;;;;;13.60;3.85;;;;;;;;;;5080653;28;20021;-66
2023/07/08 00:46:51;;;;;;;9.40;4.03;;;;;;;;;;5090071;28;20023;-66
2023/07/08 00:49:22;;;;;;;6.35;3.97;;;;;;;;;;5091973;28;20028;-66
2023/07/08 00:51:48;;;;;;;8.63;5.03;;;;;;;;;;5079040;28;20081;-66
2023/07/08 00:54:14;;;;;;;5.97;3.38;;;;;;;;;;5090987;28;20103;-66
2023/07/08 00:56:42;;;;;;;7.40;4.75;;;;;;;;;;5078813;28;20032;-66
2023/07/08 00:59:10;;;;;;;6.35;3.85;;;;;;;;;;5091826;28;20032;-66
2023/07/08 01:01:37;;;;;;;8.02;4.15;;;;;;;;;;5091351;28;20070;-66
2023/07/08 01:04:05;;;;;;;7.43;3.88;;;;;;;;;;5092067;28;20469;-66
2023/07/08 01:06:32;;;;;;;7.32;3.83;;;;;;;;;;5092040;28;20020;-66
2023/07/08 01:09:00;;;;;;;7.68;4.20;;;;;;;;;;5090918;28;20026;-66
2023/07/08 01:11:25;;;;;;;8.10;3.88;;;;;;;;;;5090880;28;20054;-66
2023/07/08 01:13:51;;;;;;;6.35;4.20;;;;;;;;;;5091839;28;20020;-66
2023/07/08 01:16:17;;;;;;;6.60;3.80;;;;;;;;;;5077941;28;20379;-67
2023/07/08 01:18:42;;;;;;;10.10;3.88;;;;;;;;;;5088440;28;20031;-66
2023/07/08 01:21:46;;;;;;;5.45;3.78;;;;;;;;;;5091866;28;20421;-66
2023/07/08 01:24:11;;;;;;;8.63;4.55;;;;;;;;;;5018023;28;20157;-66
2023/07/08 01:26:39;;;;;;;6.82;4.15;;;;;;;;;;5029138;28;20460;-67
2023/07/08 01:29:07;;;;;;;5.55;3.67;;;;;;;;;;5059266;28;20044;-67
2023/07/08 01:31:32;;;;;;;5.95;3.72;;;;;;;;;;5091144;28;20031;-67
2023/07/08 01:33:57;;;;;;;8.75;4.85;;;;;;;;;;5092070;28;20382;-68
2023/07/08 01:36:23;;;;;;;6.53;4.28;;;;;;;;;;5079392;28;20071;-67
2023/07/08 01:38:48;;;;;;;8.13;4.40;;;;;;;;;;5091862;28;20028;-68
2023/07/08 01:41:14;;;;;;;8.80;4.68;;;;;;;;;;5090224;28;20035;-67
2023/07/08 01:43:40;;;;;;;6.30;4.07;;;;;;;;;;5080113;28;20028;-67
2023/07/08 01:46:11;;;;;;;8.25;4.10;;;;;;;;;;5092084;28;20024;-67
2023/07/08 01:48:38;;;;;;;10.20;4.07;;;;;;;;;;5091147;28;20099;-67
2023/07/08 01:51:04;;;;;;;7.05;4.30;;;;;;;;;;5091415;28;20039;-67
2023/07/08 01:53:31;;;;;;;7.43;4.53;;;;;;;;;;5092149;28;20016;-67
2023/07/08 01:55:56;;;;;;;6.13;3.90;;;;;;;;;;5091329;28;20059;-67
2023/07/08 01:58:21;;;;;;;8.83;4.60;;;;;;;;;;5090973;28;20063;-67
2023/07/08 02:00:48;;;;;;;9.43;4.57;;;;;;;;;;5090733;28;20285;-68
2023/07/08 02:03:14;;;;;;;8.13;4.40;;;;;;;;;;5090318;28;20383;-67
2023/07/08 02:05:39;;;;;;;9.63;4.70;;;;;;;;;;5090255;28;20028;-67
2023/07/08 02:08:05;;;;;;;7.40;4.70;;;;;;;;;;5091057;28;20036;-67
2023/07/08 02:10:30;;;;;;;8.27;4.07;;;;;;;;;;5089996;28;20385;-67
2023/07/08 02:12:55;;;;;;;7.47;4.55;;;;;;;;;;5090301;28;20024;-67
2023/07/08 02:15:20;;;;;;;9.40;5.03;;;;;;;;;;5085030;28;20029;-67
2023/07/08 02:17:46;;;;;;;7.25;4.40;;;;;;;;;;5071637;28;20279;-67
2023/07/08 02:20:11;;;;;;;8.23;5.07;;;;;;;;;;5090349;28;20028;-67
2023/07/08 02:22:36;;;;;;;7.15;3.90;;;;;;;;;;5090365;28;20048;-66
2023/07/08 02:25:02;;;;;;;7.18;4.60;;;;;;;;;;5047149;28;20091;-67
2023/07/08 02:27:27;;;;;;;6.72;4.05;;;;;;;;;;5056351;28;20020;-67
2023/07/08 02:29:52;;;;;;;7.60;4.57;;;;;;;;;;5088349;28;20020;-66
2023/07/08 02:32:17;;;;;;;9.80;4.87;;;;;;;;;;5090505;28;20274;-66
2023/07/08 02:34:43;;;;;;;7.50;4.33;;;;;;;;;;5090217;28;20602;-66
2023/07/08 02:37:08;;;;;;;8.47;4.50;;;;;;;;;;5090947;28;20375;-66
2023/07/08 02:39:33;;;;;;;7.35;5.15;;;;;;;;;;5090058;28;20262;-66
2023/07/08 02:41:58;;;;;;;7.70;5.35;;;;;;;;;;5083169;28;20032;-66
2023/07/08 02:44:24;;;;;;;8.23;4.93;;;;;;;;;;5084737;28;20032;-65
2023/07/08 02:46:49;;;;;;;9.23;5.65;;;;;;;;;;5090186;28;20274;-65
2023/07/08 02:49:14;;;;;;;10.00;4.90;;;;;;;;;;5088597;28;20069;-65
2023/07/08 02:51:40;;;;;;;10.25;5.13;;;;;;;;;;5075321;28;20366;-66
2023/07/08 02:54:05;;;;;;;8.45;4.70;;;;;;;;;;5083003;28;20042;-65
2023/07/08 02:56:30;;;;;;;7.13;5.13;;;;;;;;;;5078241;28;20029;-66
2023/07/08 02:58:55;;;;;;;7.70;4.20;;;;;;;;;;5079927;28;20032;-65
2023/07/08 03:01:21;;;;;;;8.13;5.20;;;;;;;;;;5086849;28;20024;-65
2023/07/08 03:03:47;;;;;;;7.65;5.43;;;;;;;;;;5094076;28;20270;-65
2023/07/08 03:06:12;;;;;;;12.00;5.30;;;;;;;;;;5094224;28;20093;-66
2023/07/08 03:08:38;;;;;;;9.43;5.13;;;;;;;;;;5086229;28;20524;-67
2023/07/08 03:11:05;;;;;;;10.27;5.30;;;;;;;;;;5093732;28;20024;-65
2023/07/08 03:13:31;;;;;;;9.85;5.18;;;;;;;;;;5093450;28;20397;-65
2023/07/08 03:15:57;;;;;;;7.40;5.15;;;;;;;;;;5093230;28;20039;-65
2023/07/08 03:18:24;;;;;;;6.82;4.97;;;;;;;;;;5092812;28;20024;-65
2023/07/08 03:20:49;;;;;;;8.35;4.97;;;;;;;;;;5092986;28;20020;-65
2023/07/08 03:23:14;;;;;;;8.07;5.25;;;;;;;;;;5093700;28;20042;-65
2023/07/08 03:25:40;;;;;;;8.88;5.40;;;;;;;;;;5093176;28;20020;-65
2023/07/08 03:28:06;;;;;;;9.43;5.32;;;;;;;;;;5092353;28;20040;-65
2023/07/08 03:30:31;;;;;;;10.65;5.57;;;;;;;;;;5093240;28;20396;-65
2023/07/08 03:32:56;;;;;;;9.45;5.60;;;;;;;;;;5093935;28;20020;-65
2023/07/08 03:35:22;;;;;;;8.87;4.87;;;;;;;;;;5093428;28;20030;-65
2023/07/08 03:37:47;;;;;;;7.75;4.55;;;;;;;;;;5080882;28;20312;-65
2023/07/08 03:40:13;;;;;;;11.25;5.50;;;;;;;;;;5093428;28;20031;-65
2023/07/08 03:42:38;;;;;;;7.68;4.55;;;;;;;;;;5093718;28;20111;-65
2023/07/08 03:45:04;;;;;;;7.83;4.87;;;;;;;;;;5093205;28;20111;-65
2023/07/08 03:47:29;;;;;;;7.90;5.28;;;;;;;;;;5093029;28;20301;-65
2023/07/08 03:49:54;;;;;;;9.23;5.15;;;;;;;;;;5093103;28;20024;-65
2023/07/08 03:52:19;;;;;;;7.20;5.27;;;;;;;;;;5093700;28;20032;-65
2023/07/08 03:54:45;;;;;;;10.43;6.20;;;;;;;;;;5093142;28;20278;-65
2023/07/08 03:57:10;;;;;;;8.85;5.40;;;;;;;;;;5080480;28;20354;-66
2023/07/08 03:59:35;;;;;;;8.40;5.23;;;;;;;;;;5088235;28;20027;-66
2023/07/08 04:02:01;;;;;;;10.40;5.78;;;;;;;;;;5093575;28;20365;-66
2023/07/08 04:04:26;;;;;;;7.78;5.65;;;;;;;;;;5088015;28;20451;-66
2023/07/08 04:06:51;;;;;;;11.75;4.70;;;;;;;;;;5093410;28;20019;-66
2023/07/08 04:09:16;;;;;;;7.93;5.30;;;;;;;;;;5093093;28;20409;-66
2023/07/08 04:11:42;;;;;;;7.05;4.88;;;;;;;;;;5092860;28;20471;-66
2023/07/08 04:14:09;;;;;;;6.97;4.43;;;;;;;;;;5092942;28;20447;-65
2023/07/08 04:16:45;;;;;;;8.05;5.38;;;;;;;;;;5082956;28;20483;-66
2023/07/08 04:19:14;;;;;;;9.88;6.07;;;;;;;;;;5090177;28;20058;-66
2023/07/08 04:21:39;;;;;;;8.65;5.78;;;;;;;;;;5091092;28;20035;-65
2023/07/08 04:24:05;;;;;;;8.23;5.07;;;;;;;;;;5091118;28;20032;-66
2023/07/08 04:26:30;;;;;;;6.57;4.63;;;;;;;;;;5088528;28;20115;-66
2023/07/08 04:28:55;;;;;;;8.57;5.72;;;;;;;;;;5074066;28;20028;-66
2023/07/08 04:31:20;;;;;;;6.97;5.30;;;;;;;;;;5086760;28;20035;-65
2023/07/08 04:33:46;;;;;;;11.50;5.60;;;;;;;;;;5092274;28;20024;-65
2023/07/08 04:36:12;;;;;;;10.73;5.73;;;;;;;;;;5092163;28;20039;-65
2023/07/08 04:38:37;;;;;;;7.40;5.55;;;;;;;;;;5091924;28;20355;-66
2023/07/08 04:41:02;;;;;;;9.55;5.35;;;;;;;;;;5091508;28;20493;-66
2023/07/08 04:43:28;;;;;;;9.07;5.53;;;;;;;;;;5091307;28;20032;-66
2023/07/08 04:45:54;;;;;;;9.52;5.55;;;;;;;;;;5092511;28;20027;-67
2023/07/08 04:48:21;;;;;;;8.10;6.18;;;;;;;;;;5091462;28;21800;-66
2023/07/08 04:50:47;;;;;;;8.35;6.05;;;;;;;;;;5078205;28;20056;-65
2023/07/08 04:53:13;;;;;;;9.13;5.65;;;;;;;;;;5092070;28;20031;-66
2023/07/08 04:55:40;;;;;;;12.13;6.05;;;;;;;;;;5091492;28;20075;-65
2023/07/08 04:58:06;;;;;;;8.68;6.15;;;;;;;;;;5091601;28;20020;-66
2023/07/08 05:00:31;;;;;;;13.93;7.07;;;;;;;;;;5091343;28;20081;-65
2023/07/08 05:02:56;;;;;;;11.03;6.40;;;;;;;;;;5089726;28;20347;-65
2023/07/08 05:05:22;;;;;;;9.82;5.80;;;;;;;;;;5091146;28;20349;-65
2023/07/08 05:07:49;;;;;;;16.10;5.78;;;;;;;;;;5091570;28;20432;-65
2023/07/08 05:10:14;;;;;;;10.43;6.40;;;;;;;;;;5091127;28;20107;-65
2023/07/08 05:12:39;;;;;;;10.88;6.32;;;;;;;;;;5091025;28;20107;-65
2023/07/08 05:15:05;;;;;;;11.25;6.65;;;;;;;;;;5090375;28;20036;-65
2023/07/08 05:17:30;;;;;;;10.85;5.38;;;;;;;;;;5091603;28;20482;-65
2023/07/08 05:20:00;;;;;;;10.98;6.22;;;;;;;;;;5090358;28;20035;-65
2023/07/08 05:22:25;;;;;;;8.70;6.00;;;;;;;;;;5090580;28;20023;-65
2023/07/08 05:24:52;;;;;;;10.25;6.22;;;;;;;;;;5088434;28;20535;-65
2023/07/08 05:27:18;;;;;;;11.05;6.78;;;;;;;;;;5091181;28;20430;-65
2023/07/08 05:29:43;;;;;;;10.05;5.72;;;;;;;;;;5091314;28;20063;-65
2023/07/08 05:32:08;;;;;;;11.60;6.30;;;;;;;;;;5091832;28;20016;-65
2023/07/08 05:34:33;;;;;;;13.83;6.13;;;;;;;;;;5091352;28;20392;-65
2023/07/08 05:36:59;;;;;;;10.30;6.13;;;;;;;;;;5091598;28;20293;-65
2023/07/08 05:39:24;;;;;;;8.77;6.25;;;;;;;;;;5090975;28;20794;-65
2023/07/08 05:41:49;;;;;;;10.02;6.32;;;;;;;;;;5091457;28;20031;-65
2023/07/08 05:44:15;;;;;;;9.02;6.97;;;;;;;;;;5091258;28;20039;-65
2023/07/08 05:46:40;;;;;;;14.70;6.63;;;;;;;;;;5090736;28;20024;-65
2023/07/08 05:49:05;;;;;;;11.90;5.97;;;;;;;;;;5091016;28;20032;-65
2023/07/08 05:51:30;;;;;;;13.33;6.97;;;;;;;;;;5091006;28;20110;-67
2023/07/08 05:53:55;;;;;;;8.57;6.20;;;;;;;;;;5092059;28;20285;-66
2023/07/08 05:56:21;;;;;;;12.30;6.00;;;;;;;;;;5090923;28;21034;-66
2023/07/08 05:58:46;;;;;;;9.40;6.20;;;;;;;;;;5084921;28;20283;-66
2023/07/08 06:01:11;;;;;;;12.23;6.83;;;;;;;;;;5086200;28;20020;-66
2023/07/08 06:03:37;;;;;;;14.27;7.40;;;;;;;;;;5091301;28;20632;-66
2023/07/08 06:06:02;;;;;;;10.82;6.88;;;;;;;;;;5089425;28;20365;-67
2023/07/08 06:08:27;;;;;;;10.52;7.05;;;;;;;;;;5091066;28;20024;-66
2023/07/08 06:10:53;;;;;;;14.20;6.13;;;;;;;;;;5089522;28;20034;-66
2023/07/08 06:13:18;;;;;;;11.77;6.57;;;;;;;;;;5090610;28;20270;-66
2023/07/08 06:15:43;;;;;;;9.70;6.18;;;;;;;;;;5089192;28;20028;-66
2023/07/08 06:18:09;;;;;;;8.63;5.90;;;;;;;;;;5090665;28;20024;-66
2023/07/08 06:20:34;;;;;;;9.65;6.60;;;;;;;;;;5090341;28;20639;-66
2023/07/08 06:22:59;;;;;;;20.15;6.45;;;;;;;;;;5090008;28;20032;-66
2023/07/08 06:25:25;;;;;;;12.00;7.35;;;;;;;;;;5091428;28;20039;-67
2023/07/08 06:27:50;;;;;;;10.83;7.07;;;;;;;;;;5090814;28;20453;-67
2023/07/08 06:30:15;;;;;;;17.05;7.68;;;;;;;;;;5090457;28;20270;-66
2023/07/08 06:32:40;;;;;;;9.53;7.87;;;;;;;;;;5089866;28;20054;-66
2023/07/08 06:35:06;;;;;;;19.13;7.40;;;;;;;;;;5094042;28;20682;-67
2023/07/08 06:37:31;;;;;;;11.32;7.90;;;;;;;;;;5093588;28;20293;-66
2023/07/08 06:39:56;;;;;;;13.73;6.40;;;;;;;;;;5093638;28;20471;-66
2023/07/08 06:42:21;;;;;;;9.97;7.17;;;;;;;;;;5093048;28;20063;-66
2023/07/08 06:44:50;;;;;;;16.73;8.45;;;;;;;;;;5093571;28;20277;-66
2023/07/08 06:47:22;;;;;;;13.70;7.93;;;;;;;;;;5094139;28;20467;-66
2023/07/08 06:49:48;;;;;;;16.13;7.80;;;;;;;;;;5093455;28;20070;-66
2023/07/08 06:52:13;;;;;;;17.77;7.30;;;;;;;;;;5093715;28;20048;-67
2023/07/08 06:54:38;;;;;;;14.82;8.00;;;;;;;;;;5081730;28;20088;-66
2023/07/08 06:57:04;;;;;;;11.77;7.47;;;;;;;;;;5093742;28;20067;-66
2023/07/08 06:59:29;;;;;;;10.98;7.47;;;;;;;;;;5081616;28;20042;-66
2023/07/08 07:01:54;;;;;;;13.32;7.03;;;;;;;;;;5087285;28;20062;-66
2023/07/08 07:04:20;;;;;;;14.97;7.13;;;;;;;;;;5090808;28;20024;-66
2023/07/08 07:06:45;;;;;;;11.70;7.40;;;;;;;;;;5088004;28;20274;-66
2023/07/08 07:09:10;;;;;;;14.65;9.00;;;;;;;;;;5094261;28;20102;-67
2023/07/08 07:11:35;;;;;;;9.70;7.10;;;;;;;;;;5093777;28;20020;-66
2023/07/08 07:14:03;;;;;;;17.83;7.95;;;;;;;;;;5093288;28;20270;-66
2023/07/08 07:16:29;;;;;;;18.15;8.07;;;;;;;;;;5093849;28;20409;-67
2023/07/08 07:18:54;;;;;;;16.52;8.20;;;;;;;;;;5093276;28;20016;-67
2023/07/08 07:21:19;;;;;;;14.20;8.25;;;;;;;;;;5093071;28;20057;-66
2023/07/08 07:23:44;;;;;;;11.57;7.90;;;;;;;;;;5093537;28;20024;-66
2023/07/08 07:26:10;;;;;;;10.93;7.57;;;;;;;;;;5092602;28;20077;-66
2023/07/08 07:28:35;;;;;;;10.90;7.10;;;;;;;;;;5092848;28;20031;-66
2023/07/08 07:31:00;;;;;;;12.10;8.13;;;;;;;;;;5093409;28;20347;-66
2023/07/08 07:33:26;;;;;;;9.82;7.40;;;;;;;;;;5093432;28;20655;-66
2023/07/08 07:35:51;;;;;;;11.93;7.20;;;;;;;;;;5092849;28;20036;-67
2023/07/08 07:38:17;;;;;;;11.82;7.40;;;;;;;;;;5092821;28;20165;-66
2023/07/08 07:40:42;;;;;;;13.20;7.57;;;;;;;;;;5092743;28;20078;-67
2023/07/08 07:43:07;;;;;;;14.73;7.85;;;;;;;;;;5090391;28;20024;-66
2023/07/08 07:45:33;;;;;;;10.88;6.78;;;;;;;;;;5081837;28;20028;-66
2023/07/08 07:47:58;;;;;;;13.45;7.50;;;;;;;;;;5092542;28;20020;-66
2023/07/08 07:50:23;;;;;;;13.80;7.80;;;;;;;;;;5093010;28;20490;-66
2023/07/08 07:52:49;;;;;;;11.52;8.00;;;;;;;;;;5091537;28;20024;-66
2023/07/08 07:55:14;;;;;;;12.80;8.73;;;;;;;;;;5092767;28;20032;-66
2023/07/08 07:57:41;;;;;;;12.73;8.25;;;;;;;;;;5092515;28;20024;-66
2023/07/08 08:00:08;;;;;;;13.93;8.25;;;;;;;;;;5087886;28;20505;-67
2023/07/08 08:02:33;;;;;;;9.95;7.82;;;;;;;;;;5092808;28;20512;-67
2023/07/08 08:04:59;;;;;;;10.52;7.47;;;;;;;;;;5090911;28;20024;-67
2023/07/08 08:07:24;;;;;;;10.70;7.73;;;;;;;;;;5093254;28;20119;-67
2023/07/08 08:09:49;;;;;;;13.33;8.13;;;;;;;;;;5093206;28;20258;-67
2023/07/08 08:12:14;;;;;;;12.68;6.95;;;;;;;;;;5089669;28;20278;-67
2023/07/08 08:14:40;;;;;;;13.40;8.27;;;;;;;;;;5087356;28;20020;-67
2023/07/08 08:17:05;;;;;;;11.33;7.27;;;;;;;;;;5092748;28;20138;-67
2023/07/08 08:19:31;;;;;;;12.52;7.97;;;;;;;;;;5083642;28;20282;-67
2023/07/08 08:21:57;;;;;;;12.20;7.22;;;;;;;;;;5092737;28;20024;-67
2023/07/08 08:24:22;;;;;;;12.60;7.60;;;;;;;;;;5092249;28;20560;-67
2023/07/08 08:26:47;;;;;;;13.90;7.78;;;;;;;;;;5092838;28;20691;-67
2023/07/08 08:29:12;;;;;;;12.37;7.90;;;;;;;;;;5092528;28;20032;-67
2023/07/08 08:31:38;;;;;;;11.27;7.73;;;;;;;;;;5092549;28;20275;-67
2023/07/08 08:34:03;;;;;;;11.98;7.03;;;;;;;;;;5092190;28;20706;-67
2023/07/08 08:36:28;;;;;;;14.67;8.33;;;;;;;;;;5091529;28;20035;-67
2023/07/08 08:38:54;;;;;;;12.30;8.10;;;;;;;;;;5091656;28;20282;-67
2023/07/08 08:41:24;;;;;;;12.53;7.60;;;;;;;;;;5091889;28;20049;-67
2023/07/08 08:43:50;;;;;;;11.43;7.70;;;;;;;;;;5083813;28;20335;-67
2023/07/08 08:46:15;;;;;;;13.57;7.60;;;;;;;;;;5087399;28;20463;-67
2023/07/08 08:48:51;;;;;;;13.00;7.47;;;;;;;;;;5092121;28;20466;-67
2023/07/08 08:51:16;;;;;;;9.82;7.05;;;;;;;;;;5091784;28;20471;-67
2023/07/08 08:53:43;;;;;;;13.70;7.87;;;;;;;;;;5090978;28;20043;-67
2023/07/08 08:56:18;;;;;;;11.77;7.50;;;;;;;;;;5090869;28;20289;-67
2023/07/08 08:58:45;;;;;;;10.60;7.43;;;;;;;;;;5080155;28;20034;-66
2023/07/08 09:01:12;;;;;;;17.15;6.90;;;;;;;;;;5084444;28;20015;-66
2023/07/08 09:03:47;;;;;;;14.18;7.35;;;;;;;;;;5091406;28;20020;-66
2023/07/08 09:06:30;;;;;;;12.45;7.38;;;;;;;;;;5091263;28;20035;-66
2023/07/08 09:08:57;;;;;;;12.95;7.68;;;;;;;;;;5082733;28;20021;-67
2023/07/08 09:11:22;;;;;;;10.30;7.25;;;;;;;;;;5090804;28;20034;-67
2023/07/08 09:13:48;;;;;;;12.38;6.55;;;;;;;;;;5091772;28;20024;-66
2023/07/08 09:16:18;;;;;;;12.88;7.70;;;;;;;;;;5091593;28;20059;-67
2023/07/08 09:18:53;;;;;;;12.13;7.15;;;;;;;;;;5081521;28;20081;-67
2023/07/08 09:21:26;;;;;;;10.68;7.38;;;;;;;;;;5091689;28;20024;-66
2023/07/08 09:23:53;;;;;;;10.70;7.53;;;;;;;;;;5091814;28;20470;-67
2023/07/08 09:26:22;;;;;;;12.10;7.03;;;;;;;;;;5090821;28;20020;-67
2023/07/08 09:28:47;;;;;;;12.48;7.55;;;;;;;;;;5090893;28;20077;-67
2023/07/08 09:31:19;;;;;;;9.83;7.60;;;;;;;;;;5089396;28;20428;-67
2023/07/08 09:33:44;;;;;;;11.27;7.50;;;;;;;;;;5091162;28;20802;-67
2023/07/08 09:36:18;;;;;;;14.17;7.70;;;;;;;;;;5085859;28;20108;-67
2023/07/08 09:38:44;;;;;;;14.23;7.13;;;;;;;;;;5089816;28;20269;-67
2023/07/08 09:41:09;;;;;;;14.38;8.55;;;;;;;;;;5091387;28;20497;-67
2023/07/08 09:43:37;;;;;;;16.20;9.03;;;;;;;;;;5090862;28;20024;-67
2023/07/08 09:46:02;;;;;;;13.80;8.20;;;;;;;;;;5091083;28;20274;-67
2023/07/08 09:48:29;;;;;;;13.48;7.60;;;;;;;;;;5090581;28;20036;-67
2023/07/08 09:50:55;;;;;;;13.40;8.05;;;;;;;;;;5091204;28;20149;-67
2023/07/08 09:53:21;;;;;;;12.27;8.10;;;;;;;;;;5091094;28;20024;-67
2023/07/08 09:55:46;;;;;;;9.25;7.05;;;;;;;;;;5090145;28;20038;-67
2023/07/08 09:58:21;;;;;;;11.82;8.70;;;;;;;;;;5087587;28;20030;-67
2023/07/08 10:00:51;;;;;;;11.02;8.02;;;;;;;;;;5080263;28;20028;-67
2023/07/08 10:03:21;;;;;;;12.23;7.57;;;;;;;;;;5086887;28;20090;-67
2023/07/08 10:05:47;;;;;;;13.55;7.43;;;;;;;;;;5083027;28;20538;-67
2023/07/08 10:08:20;;;;;;;10.52;7.32;;;;;;;;;;5090397;28;20459;-67
2023/07/08 10:11:12;;;;;;;12.13;7.73;;;;;;;;;;5090398;28;20024;-67
2023/07/08 10:13:41;;;;;;;14.27;7.80;;;;;;;;;;5049625;28;20040;-67
2023/07/08 10:16:09;;;;;;;21.05;8.75;;;;;;;;;;5089721;28;20102;-67
2023/07/08 10:18:35;;;;;;;14.32;8.63;;;;;;;;;;5082725;28;20032;-67
2023/07/08 10:21:03;;;;;;;17.33;8.50;;;;;;;;;;5091461;28;20103;-68
2023/07/08 10:23:42;;;;;;;14.90;8.68;;;;;;;;;;5090123;28;20285;-67
2023/07/08 10:26:15;;;;;;;12.85;8.90;;;;;;;;;;5090712;28;20047;-67
2023/07/08 10:28:59;;;;;;;12.60;8.20;;;;;;;;;;5090380;28;20028;-67
2023/07/08 10:31:47;;;;;;;8.35;7.05;;;;;;;;;;5084618;28;20024;-67
2023/07/08 10:34:42;;;;;;;10.73;7.30;;;;;;;;;;5084148;28;20043;-67
2023/07/08 10:37:13;;;;;;;10.45;7.38;;;;;;;;;;5068889;28;20033;-67
2023/07/08 10:40:07;;;;;;;15.32;7.85;;;;;;;;;;5090262;28;20035;-67
2023/07/08 10:42:51;;;;;;;12.40;8.40;;;;;;;;;;5072584;28;20094;-67
2023/07/08 10:45:20;;;;;;;11.90;7.35;;;;;;;;;;5078377;28;20048;-67
2023/07/08 10:47:54;;;;;;;16.48;8.27;;;;;;;;;;5090472;28;20076;-67
2023/07/08 10:50:37;;;;;;;16.52;8.18;;;;;;;;;;5080899;28;20024;-67
2023/07/08 10:53:05;;;;;;;18.60;8.52;;;;;;;;;;5089124;28;20029;-67
2023/07/08 10:55:33;;;;;;;13.82;8.48;;;;;;;;;;5090382;28;20115;-67
2023/07/08 10:58:10;;;;;;;9.95;7.20;;;;;;;;;;5090503;28;20024;-67
2023/07/08 11:00:35;;;;;;;15.00;7.68;;;;;;;;;;5078193;28;20032;-67
2023/07/08 11:03:06;;;;;;;9.27;8.27;;;;;;;;;;5089878;28;20032;-67
2023/07/08 11:05:38;;;;;;;13.50;7.47;;;;;;;;;;5089688;28;20027;-67
2023/07/08 11:08:10;;;;;;;12.30;7.30;;;;;;;;;;5083920;28;20370;-67
2023/07/08 11:10:43;;;;;;;10.07;7.53;;;;;;;;;;5089783;28;20051;-67
2023/07/08 11:13:13;;;;;;;11.05;7.80;;;;;;;;;;5089104;28;20026;-67
2023/07/08 11:16:11;;;;;;;10.48;7.32;;;;;;;;;;5090277;28;20028;-68
2023/07/08 11:18:40;;;;;;;9.80;6.90;;;;;;;;;;5042433;28;20556;-68
2023/07/08 11:21:11;;;;;;;20.60;7.63;;;;;;;;;;5091364;28;20024;-67
2023/07/08 11:23:42;;;;;;;12.65;8.30;;;;;;;;;;5093800;28;20478;-67
2023/07/08 11:26:15;;;;;;;16.50;8.60;;;;;;;;;;5080913;28;20024;-67
2023/07/08 11:28:41;;;;;;;11.40;7.35;;;;;;;;;;5093347;28;20130;-67
2023/07/08 11:31:06;;;;;;;15.68;8.27;;;;;;;;;;5092652;28;20443;-68
2023/07/08 11:33:32;;;;;;;12.82;8.57;;;;;;;;;;5093509;28;20024;-67
2023/07/08 11:35:59;;;;;;;11.80;7.82;;;;;;;;;;5092231;28;20091;-67
2023/07/08 11:38:25;;;;;;;13.00;8.48;;;;;;;;;;5091959;28;20101;-67
2023/07/08 11:41:09;;;;;;;11.02;7.38;;;;;;;;;;5088030;28;20518;-67
2023/07/08 11:43:42;;;;;;;13.18;7.38;;;;;;;;;;5089116;28;20024;-67
2023/07/08 11:46:12;;;;;;;12.23;6.88;;;;;;;;;;5092728;28;20039;-67
2023/07/08 11:48:40;;;;;;;29.27;8.02;;;;;;;;;;5087164;28;20020;-67
2023/07/08 11:51:05;;;;;;;10.80;6.63;;;;;;;;;;5093296;28;20024;-67
2023/07/08 11:53:31;;;;;;;11.43;6.70;;;;;;;;;;5093378;28;20026;-67
2023/07/08 11:55:59;;;;;;;9.73;6.50;;;;;;;;;;5092462;28;20028;-67
2023/07/08 11:58:25;;;;;;;13.05;6.70;;;;;;;;;;5086518;28;20021;-66
2023/07/08 12:01:09;;;;;;;9.65;7.13;;;;;;;;;;5082558;28;20024;-66
2023/07/08 12:03:34;;;;;;;;;;;;;;;;;;5092724;28;20052;-67
2023/07/08 12:06:01;;;;;;;11.17;6.93;;;;;;;;;;5092692;28;20000;-69
2023/07/08 12:08:33;;;;;;;14.18;7.32;;;;;;;;;;5092686;28;20169;-67
2023/07/08 12:10:59;;;;;;;11.40;8.00;;;;;;;;;;5092463;28;20024;-68
2023/07/08 12:13:24;;;;;;;10.98;6.70;;;;;;;;;;5092234;28;20050;-68
2023/07/08 12:15:50;;;;;;;15.32;7.70;;;;;;;;;;5092291;28;20103;-66
2023/07/08 12:18:18;;;;;;;19.30;6.90;;;;;;;;;;5090545;28;20038;-65
2023/07/08 12:20:52;;;;;;;12.27;7.40;;;;;;;;;;5091979;28;20492;-65
2023/07/08 12:23:19;;;;;;;17.92;7.82;;;;;;;;;;5083582;28;20544;-65
2023/07/08 12:25:44;;;;;;;20.55;7.28;;;;;;;;;;5091994;28;20041;-66
2023/07/08 12:28:12;;;;;;;11.87;6.57;;;;;;;;;;5092408;28;20389;-66
2023/07/08 12:30:37;;;;;;;10.25;7.25;;;;;;;;;;5092676;28;20028;-66
2023/07/08 12:33:03;;;;;;;10.40;7.13;;;;;;;;;;5091069;28;20498;-66
2023/07/08 12:35:30;;;;;;;10.70;6.97;;;;;;;;;;5092850;28;20262;-66
2023/07/08 12:37:57;;;;;;;12.25;7.55;;;;;;;;;;5091887;28;20023;-66
2023/07/08 12:40:25;;;;;;;16.02;7.35;;;;;;;;;;5084700;28;20027;-66
2023/07/08 12:42:50;;;;;;;9.73;7.15;;;;;;;;;;5091902;28;20024;-66
2023/07/08 12:45:16;;;;;;;9.77;6.55;;;;;;;;;;5091201;28;20439;-65
2023/07/08 12:47:42;;;;;;;9.02;6.30;;;;;;;;;;5091546;28;20054;-67
2023/07/08 12:50:08;;;;;;;10.15;7.07;;;;;;;;;;5091243;28;20662;-65
2023/07/08 12:52:34;;;;;;;11.43;6.72;;;;;;;;;;5080033;28;20189;-65
2023/07/08 12:54:59;;;;;;;13.00;7.17;;;;;;;;;;5092003;28;20119;-65
2023/07/08 12:57:24;;;;;;;11.10;6.80;;;;;;;;;;5090031;28;20055;-66
2023/07/08 12:59:50;;;;;;;12.73;7.83;;;;;;;;;;5072820;28;20020;-66
2023/07/08 13:02:16;;;;;;;8.95;6.97;;;;;;;;;;5083419;28;20027;-65
2023/07/08 13:04:43;;;;;;;11.25;6.95;;;;;;;;;;5078447;28;20151;-65
2023/07/08 13:07:17;;;;;;;12.63;7.40;;;;;;;;;;5092211;28;20016;-66
2023/07/08 13:09:44;;;;;;;11.20;7.53;;;;;;;;;;5088987;28;20028;-67
2023/07/08 13:12:17;;;;;;;10.13;7.65;;;;;;;;;;5091246;28;20032;-66
2023/07/08 13:14:43;;;;;;;12.23;7.18;;;;;;;;;;5089268;28;20027;-66
2023/07/08 13:17:12;;;;;;;18.10;7.40;;;;;;;;;;5091959;28;20386;-66
2023/07/08 13:19:37;;;;;;;12.38;7.65;;;;;;;;;;5091421;28;20020;-66
2023/07/08 13:22:03;;;;;;;22.45;7.88;;;;;;;;;;5091567;28;20516;-69
2023/07/08 13:24:30;;;;;;;11.32;7.55;;;;;;;;;;5091391;28;20024;-70
2023/07/08 13:26:55;;;;;;;12.25;7.57;;;;;;;;;;5091697;28;20020;-66
2023/07/08 13:29:21;;;;;;;15.97;7.30;;;;;;;;;;5091049;28;20103;-66
2023/07/08 13:31:48;;;;;;;10.32;7.47;;;;;;;;;;5091526;28;20771;-66
2023/07/08 13:34:18;;;;;;;12.88;7.78;;;;;;;;;;5090983;28;20467;-65
2023/07/08 13:36:44;;;;;;;10.95;7.15;;;;;;;;;;5091905;28;20035;-72
2023/07/08 13:39:14;;;;;;;11.73;7.68;;;;;;;;;;5091025;28;20459;-73
2023/07/08 13:41:42;;;;;;;13.20;7.13;;;;;;;;;;5073978;28;20474;-71
2023/07/08 13:44:08;;;;;;;10.77;7.70;;;;;;;;;;5084569;28;20077;-67
2023/07/08 13:46:37;;;;;;;11.07;8.13;;;;;;;;;;5088750;28;20491;-65
2023/07/08 13:49:09;;;;;;;11.25;7.32;;;;;;;;;;5089231;28;20474;-65
2023/07/08 13:51:34;;;;;;;13.48;6.78;;;;;;;;;;5081070;28;20020;-64
2023/07/08 13:54:07;;;;;;;10.27;7.20;;;;;;;;;;5088050;28;20173;-64
2023/07/08 13:56:33;;;;;;;14.50;7.60;;;;;;;;;;5090770;28;20061;-64
2023/07/08 13:59:05;;;;;;;16.13;7.57;;;;;;;;;;5080905;28;20097;-64
2023/07/08 14:01:32;;;;;;;8.90;7.00;;;;;;;;;;5089774;28;20020;-64
2023/07/08 14:03:57;;;;;;;7.90;5.97;;;;;;;;;;5087658;28;20042;-66
2023/07/08 14:06:28;;;;;;;12.93;7.30;;;;;;;;;;5090297;28;20028;-65
2023/07/08 14:08:54;;;;;;;14.80;6.80;;;;;;;;;;5086600;28;20032;-66
2023/07/08 14:11:20;;;;;;;14.32;6.40;;;;;;;;;;5090170;28;20471;-68
2023/07/08 14:13:45;;;;;;;12.23;7.67;;;;;;;;;;5089802;28;20034;-66
2023/07/08 14:16:24;;;;;;;11.40;7.17;;;;;;;;;;5071996;28;20909;-65
2023/07/08 14:18:49;;;;;;;10.90;7.40;;;;;;;;;;5090633;28;20285;-65
2023/07/08 14:21:15;;;;;;;13.77;7.85;;;;;;;;;;5090426;28;20020;-64
2023/07/08 14:23:40;;;;;;;13.53;7.80;;;;;;;;;;5090720;28;20133;-63
2023/07/08 14:26:11;;;;;;;11.73;7.23;;;;;;;;;;5090591;28;20047;-65
2023/07/08 14:28:37;;;;;;;12.35;7.43;;;;;;;;;;5090393;28;20024;-66
2023/07/08 14:31:02;;;;;;;10.37;6.90;;;;;;;;;;5090295;28;20039;-66
2023/07/08 14:33:27;;;;;;;11.87;6.83;;;;;;;;;;5090081;28;20278;-65
2023/07/08 14:35:52;;;;;;;12.90;7.20;;;;;;;;;;5090307;28;20538;-65